Time;durP1;ratioP1;P1;durP2;ratioP2;P2;SDS_P1;SDS_P2;PMS_P1;PMS_P2;Temp;Humidity;BMP_temperature;BMP_pressure;BME280_temperature;BME280_humidity;BME280_pressure;Samples;Min_cycle;Max_cycle;Signal;HPM_P1;HPM_P2
2022/08/31 00:04:31;;;;;;;18.23;7.07;;;;;;;24.07;71.47;100791.59;2103879;28;20055;-71
2022/08/31 00:05:56;;;;;;;12.93;7.55;;;;;;;24.06;71.65;100784.44;2091821;28;20040;-70
2022/08/31 00:07:18;;;;;;;13.13;7.15;;;;;;;24.05;72.14;100786.28;2093366;28;20451;-70
2022/08/31 00:08:40;;;;;;;12.98;7.22;;;;;;;24.07;72.28;100783.53;2094496;28;20143;-70
2022/08/31 00:10:12;;;;;;;16.52;7.53;;;;;;;24.11;72.31;100785.13;2086546;28;20049;-71
2022/08/31 00:11:36;;;;;;;16.63;8.45;;;;;;;24.15;72.24;100786.78;2098088;28;20378;-70
2022/08/31 00:12:58;;;;;;;18.20;8.02;;;;;;;24.15;72.39;100789.50;2102561;28;20048;-71
2022/08/31 00:14:20;;;;;;;16.40;7.57;;;;;;;24.13;72.72;100792.25;2092907;28;20592;-70
2022/08/31 00:15:42;;;;;;;16.95;8.60;;;;;;;24.11;72.62;100788.72;2086973;28;20047;-71
2022/08/31 00:17:05;;;;;;;14.82;8.20;;;;;;;24.08;73.25;100782.59;2087034;28;20064;-71
2022/08/31 00:18:27;;;;;;;16.83;7.72;;;;;;;24.08;73.40;100785.28;2094975;28;20147;-71
2022/08/31 00:19:49;;;;;;;12.85;7.40;;;;;;;24.10;73.46;100786.06;2095274;28;20040;-71
2022/08/31 00:21:11;;;;;;;16.45;7.85;;;;;;;24.12;73.46;100781.50;2111718;28;20086;-71
2022/08/31 00:22:33;;;;;;;14.13;7.57;;;;;;;24.15;73.57;100776.00;2099511;28;20032;-71
2022/08/31 00:23:56;;;;;;;15.02;8.25;;;;;;;24.16;73.37;100777.72;2094944;28;20038;-70
2022/08/31 00:25:17;;;;;;;46.20;10.38;;;;;;;24.16;73.42;100783.13;2103687;28;20105;-71
2022/08/31 00:26:42;;;;;;;16.42;8.52;;;;;;;24.12;73.80;100779.69;2101104;28;20055;-70
2022/08/31 00:28:07;;;;;;;15.13;7.80;;;;;;;24.10;73.90;100783.38;2103289;28;20086;-70
2022/08/31 00:29:29;;;;;;;14.45;7.30;;;;;;;24.10;73.91;100788.78;2095524;28;20076;-71
2022/08/31 00:30:51;;;;;;;15.43;7.95;;;;;;;24.13;74.07;100783.28;2093109;28;20094;-71
2022/08/31 00:32:13;;;;;;;16.38;8.63;;;;;;;24.18;74.10;100781.25;2110486;28;20047;-70
2022/08/31 00:33:35;;;;;;;15.68;7.93;;;;;;;24.24;74.01;100791.84;2097658;28;20071;-71
2022/08/31 00:34:58;;;;;;;16.83;8.02;;;;;;;24.29;74.25;100784.44;2093753;28;20595;-70
2022/08/31 00:36:21;;;;;;;13.40;7.90;;;;;;;24.30;74.24;100788.88;2095101;28;20052;-71
2022/08/31 00:37:44;;;;;;;22.50;9.50;;;;;;;24.31;74.27;100789.78;2093142;28;20544;-70
2022/08/31 00:39:07;;;;;;;14.30;7.68;;;;;;;24.33;74.65;100786.09;2086711;28;20070;-70
2022/08/31 00:40:28;;;;;;;15.60;7.57;;;;;;;24.37;74.52;100782.31;2092770;28;20083;-71
2022/08/31 00:41:53;;;;;;;17.48;8.15;;;;;;;24.41;74.61;100786.66;2089055;28;20048;-70
2022/08/31 00:43:41;;;;;;;16.83;8.25;;;;;;;24.42;74.33;100787.50;2092307;28;20763;-70
2022/08/31 00:45:05;;;;;;;18.35;7.88;;;;;;;24.40;74.35;100782.19;2095566;28;20536;-70
2022/08/31 00:46:30;;;;;;;15.05;7.95;;;;;;;24.42;74.19;100779.41;2086295;28;20556;-71
2022/08/31 00:47:52;;;;;;;17.45;7.57;;;;;;;24.41;73.76;100780.38;2094836;28;20074;-70
2022/08/31 00:49:19;;;;;;;15.85;8.02;;;;;;;24.43;73.99;100787.44;2088158;28;20044;-70
2022/08/31 00:50:42;;;;;;;14.65;7.85;;;;;;;24.42;74.04;100777.59;2093776;28;20134;-70
2022/08/31 00:52:08;;;;;;;13.43;8.32;;;;;;;24.43;74.40;100781.16;2089298;28;20052;-70
2022/08/31 00:53:31;;;;;;;19.48;9.40;;;;;;;24.42;74.27;100774.88;2088345;28;20036;-70
2022/08/31 00:54:57;;;;;;;16.85;8.02;;;;;;;24.42;74.34;100782.09;2095068;28;20139;-70
2022/08/31 00:56:19;;;;;;;17.52;8.30;;;;;;;24.40;74.43;100779.50;2105271;28;20051;-71
2022/08/31 00:57:47;;;;;;;15.02;7.82;;;;;;;24.41;74.87;100788.47;2100275;28;20048;-70
2022/08/31 00:59:10;;;;;;;15.60;8.32;;;;;;;24.35;74.93;100781.47;2098292;28;20059;-70
2022/08/31 01:00:32;;;;;;;15.23;8.25;;;;;;;24.32;75.12;100778.03;2093067;28;20106;-70
2022/08/31 01:01:55;;;;;;;18.23;8.32;;;;;;;24.27;75.37;100780.94;2094624;28;20637;-71
2022/08/31 01:03:17;;;;;;;18.27;7.95;;;;;;;24.27;75.38;100785.44;2100575;28;20094;-70
2022/08/31 01:04:39;;;;;;;15.85;9.07;;;;;;;24.26;75.42;100786.38;2102998;28;20036;-71
2022/08/31 01:06:01;;;;;;;13.98;8.38;;;;;;;24.23;75.71;100777.47;2090411;28;20491;-70
2022/08/31 01:07:24;;;;;;;;;;;;;;;24.18;75.83;100768.66;2093388;28;20055;-70
2022/08/31 01:08:46;;;;;;;18.13;8.00;;;;;;;24.16;75.68;100769.63;2092190;28;19920;-70
2022/08/31 01:10:10;;;;;;;14.18;8.52;;;;;;;24.14;76.09;100775.13;2092799;28;20048;-71
2022/08/31 01:11:33;;;;;;;14.38;8.05;;;;;;;24.15;76.01;100776.00;2086973;28;20656;-71
2022/08/31 01:13:00;;;;;;;16.08;8.35;;;;;;;24.17;76.28;100771.41;2077296;28;20053;-70
2022/08/31 01:14:23;;;;;;;15.05;8.38;;;;;;;24.16;76.13;100767.81;2091151;28;20099;-70
2022/08/31 01:15:50;;;;;;;18.42;9.10;;;;;;;24.18;76.09;100762.38;2094665;28;20668;-70
2022/08/31 01:17:12;;;;;;;15.07;8.02;;;;;;;24.17;76.16;100771.41;2086289;28;20074;-70
2022/08/31 01:18:34;;;;;;;17.52;8.35;;;;;;;24.16;75.90;100770.53;2094927;28;20048;-71
2022/08/31 01:20:06;;;;;;;19.13;9.52;;;;;;;24.17;75.99;100766.88;2103231;28;20048;-71
2022/08/31 01:21:31;;;;;;;16.65;8.82;;;;;;;24.18;76.10;100770.47;2100777;28;20099;-70
2022/08/31 01:23:06;;;;;;;18.75;8.95;;;;;;;24.17;76.27;100763.31;2111166;28;20036;-70
2022/08/31 01:24:31;;;;;;;19.75;8.38;;;;;;;24.12;76.27;100760.81;2097066;28;20179;-70
2022/08/31 01:25:57;;;;;;;17.40;8.73;;;;;;;24.11;76.56;100771.66;2078698;28;20099;-70
2022/08/31 01:27:23;;;;;;;14.75;8.88;;;;;;;24.12;76.87;100768.03;2082356;28;20041;-71
2022/08/31 01:28:49;;;;;;;16.42;8.50;;;;;;;24.10;77.09;100767.19;2085456;28;20045;-70
2022/08/31 01:30:19;;;;;;;20.35;8.60;;;;;;;24.12;76.88;100762.63;2100610;28;20088;-70
2022/08/31 01:31:45;;;;;;;16.45;8.73;;;;;;;24.11;77.18;100769.84;2097936;28;20386;-71
2022/08/31 01:33:08;;;;;;;13.85;7.85;;;;;;;24.07;77.12;100770.03;2088699;28;20069;-70
2022/08/31 01:34:33;;;;;;;14.60;8.95;;;;;;;23.96;77.31;100766.88;2092056;28;20044;-70
2022/08/31 01:35:56;;;;;;;16.15;8.52;;;;;;;23.90;77.78;100759.00;2086585;28;20107;-71
2022/08/31 01:37:19;;;;;;;14.18;9.07;;;;;;;23.90;77.96;100765.28;2083723;28;20528;-70
2022/08/31 01:38:44;;;;;;;15.90;10.07;;;;;;;23.94;78.12;100766.94;2097077;28;20051;-70
2022/08/31 01:40:08;;;;;;;16.25;9.35;;;;;;;23.97;78.01;100766.81;2094499;28;20131;-70
2022/08/31 01:41:31;;;;;;;16.25;8.93;;;;;;;23.99;77.98;100773.03;2089991;28;20064;-70
2022/08/31 01:42:54;;;;;;;16.25;9.10;;;;;;;23.94;77.90;100771.47;2086292;28;20045;-71
2022/08/31 01:44:19;;;;;;;16.33;8.68;;;;;;;23.91;78.36;100772.44;2091400;28;20528;-70
2022/08/31 01:45:41;;;;;;;19.73;11.15;;;;;;;23.90;78.41;100773.38;2086573;28;20102;-70
2022/08/31 01:47:04;;;;;;;16.73;9.43;;;;;;;23.92;78.51;100778.72;2088882;28;20036;-70
2022/08/31 01:48:26;;;;;;;15.18;8.02;;;;;;;23.90;78.34;100777.88;2091791;28;20077;-71
2022/08/31 01:49:48;;;;;;;21.85;8.70;;;;;;;23.87;78.70;100776.22;2097947;28;20036;-71
2022/08/31 01:51:14;;;;;;;17.23;8.93;;;;;;;23.88;78.43;100771.69;2101402;28;20060;-71
2022/08/31 01:52:36;;;;;;;16.55;9.27;;;;;;;23.90;78.35;100770.69;2094686;28;20094;-70
2022/08/31 01:54:01;;;;;;;16.83;9.15;;;;;;;23.94;78.55;100774.16;2092670;28;20049;-70
2022/08/31 01:55:22;;;;;;;18.80;9.95;;;;;;;23.94;78.46;100766.94;2094372;28;20033;-71
2022/08/31 01:56:47;;;;;;;17.80;8.90;;;;;;;23.96;78.27;100777.69;2094392;28;20520;-70
2022/08/31 01:58:15;;;;;;;17.83;9.00;;;;;;;23.95;78.44;100775.91;2086503;28;20084;-71
2022/08/31 01:59:56;;;;;;;13.50;8.48;;;;;;;23.92;78.45;100766.13;2097160;28;20061;-70
2022/08/31 02:01:53;;;;;;;20.92;9.00;;;;;;;23.79;78.62;100775.63;2102631;28;20105;-70
2022/08/31 02:03:17;;;;;;;14.13;8.00;;;;;;;23.71;79.17;100773.22;2086292;28;20144;-70
2022/08/31 02:04:38;;;;;;;22.65;9.43;;;;;;;23.72;79.17;100766.88;2083011;28;20060;-71
2022/08/31 02:06:07;;;;;;;17.48;8.77;;;;;;;23.76;79.28;100773.06;2094399;28;20071;-71
2022/08/31 02:07:30;;;;;;;16.75;9.10;;;;;;;23.78;79.30;100777.44;2100774;28;20480;-71
2022/08/31 02:08:52;;;;;;;16.58;9.40;;;;;;;23.80;79.54;100770.19;2092655;28;20041;-70
2022/08/31 02:10:17;;;;;;;17.83;8.45;;;;;;;23.79;79.40;100776.50;2102789;28;20105;-70
2022/08/31 02:11:40;;;;;;;20.40;8.95;;;;;;;23.74;79.73;100766.84;2089773;28;20090;-70
2022/08/31 02:13:02;;;;;;;16.70;9.38;;;;;;;23.74;79.54;100773.09;2091186;28;20403;-70
2022/08/31 02:14:25;;;;;;;20.25;11.00;;;;;;;23.76;79.80;100776.59;2086672;28;20072;-71
2022/08/31 02:15:49;;;;;;;17.08;8.88;;;;;;;23.73;79.36;100774.03;2102419;28;20028;-70
2022/08/31 02:17:12;;;;;;;13.32;8.50;;;;;;;23.68;79.48;100773.34;2091680;28;20145;-71
2022/08/31 02:18:37;;;;;;;18.25;7.80;;;;;;;23.63;79.59;100774.47;2094720;28;20049;-71
2022/08/31 02:19:59;;;;;;;12.95;8.30;;;;;;;23.59;79.79;100776.38;2088156;28;20051;-70
2022/08/31 02:21:21;;;;;;;13.10;7.78;;;;;;;23.56;79.81;100776.50;2085755;28;20045;-71
2022/08/31 02:22:43;;;;;;;13.85;8.23;;;;;;;23.53;79.75;100783.81;2091790;28;20156;-70
2022/08/31 02:24:07;;;;;;;16.38;9.38;;;;;;;23.53;80.18;100770.34;2097913;28;20040;-70
2022/08/31 02:25:30;;;;;;;15.48;8.43;;;;;;;23.56;80.10;100775.63;2093979;28;20052;-70
2022/08/31 02:26:54;;;;;;;13.95;8.75;;;;;;;23.60;80.10;100774.56;2085488;28;20112;-71
2022/08/31 02:28:18;;;;;;;18.55;9.02;;;;;;;23.64;79.77;100774.38;2094395;28;20063;-70
2022/08/31 02:29:41;;;;;;;15.45;9.23;;;;;;;23.66;79.74;100771.63;2090322;28;20139;-70
2022/08/31 02:31:03;;;;;;;18.60;9.15;;;;;;;23.70;79.77;100770.56;2083377;28;20639;-71
2022/08/31 02:32:30;;;;;;;15.95;8.98;;;;;;;23.71;79.67;100769.63;2093974;28;20127;-71
2022/08/31 02:33:53;;;;;;;14.88;9.00;;;;;;;23.70;79.52;100776.84;2087060;28;20045;-70
2022/08/31 02:35:18;;;;;;;15.98;8.70;;;;;;;23.62;79.62;100768.19;2086244;28;20055;-71
2022/08/31 02:36:40;;;;;;;17.35;9.35;;;;;;;23.59;79.66;100775.50;2084803;28;20040;-71
2022/08/31 02:38:03;;;;;;;14.75;8.60;;;;;;;23.61;79.96;100768.25;2095100;28;20071;-71
2022/08/31 02:39:26;;;;;;;16.13;8.95;;;;;;;23.60;79.54;100767.38;2087057;28;20447;-70
2022/08/31 02:40:52;;;;;;;17.23;8.68;;;;;;;23.61;79.48;100766.44;2085569;28;20065;-71
2022/08/31 02:42:15;;;;;;;13.98;9.20;;;;;;;23.63;79.56;100771.78;2083658;28;20061;-70
2022/08/31 02:43:37;;;;;;;17.60;8.88;;;;;;;23.65;79.28;100770.75;2083124;28;20068;-70
2022/08/31 02:44:59;;;;;;;20.25;9.18;;;;;;;23.67;79.01;100776.09;2083283;28;20057;-71
2022/08/31 02:46:22;;;;;;;17.40;9.32;;;;;;;23.67;78.83;100776.09;2091206;28;20257;-70
2022/08/31 02:47:56;;;;;;;20.10;9.38;;;;;;;23.65;78.85;100775.25;2087098;28;20056;-70
2022/08/31 02:49:31;;;;;;;15.98;9.13;;;;;;;23.64;78.87;100770.81;2086609;28;20051;-71
2022/08/31 02:50:54;;;;;;;19.40;9.30;;;;;;;23.63;78.91;100775.31;2083267;28;20481;-71
2022/08/31 02:52:15;;;;;;;20.23;10.55;;;;;;;23.64;78.73;100773.50;2083475;28;20083;-71
2022/08/31 02:53:39;;;;;;;16.55;8.95;;;;;;;23.66;78.77;100769.81;2091164;28;20176;-70
2022/08/31 02:55:02;;;;;;;14.75;9.23;;;;;;;23.66;78.38;100768.94;2085616;28;20120;-71
2022/08/31 02:56:27;;;;;;;17.33;9.48;;;;;;;23.67;78.37;100768.88;2083966;28;20110;-70
2022/08/31 02:57:49;;;;;;;16.38;8.95;;;;;;;23.68;78.58;100767.97;2099562;28;20072;-71
2022/08/31 02:59:12;;;;;;;18.48;9.57;;;;;;;23.68;78.49;100772.47;2093920;28;20574;-71
2022/08/31 03:00:34;;;;;;;18.02;8.88;;;;;;;23.69;78.10;100772.41;2093780;28;20083;-71
2022/08/31 03:01:58;;;;;;;14.80;8.82;;;;;;;23.69;78.31;100775.13;2091540;28;20809;-71
2022/08/31 03:03:21;;;;;;;16.90;9.52;;;;;;;23.69;78.46;100777.81;2099636;28;20582;-71
2022/08/31 03:04:44;;;;;;;17.52;9.70;;;;;;;23.68;78.42;100769.78;2094229;28;20113;-70
2022/08/31 03:06:08;;;;;;;17.92;10.00;;;;;;;23.67;78.48;100779.66;2092289;28;20036;-71
2022/08/31 03:07:32;;;;;;;16.70;9.15;;;;;;;23.66;78.53;100775.22;2090837;28;20052;-71
2022/08/31 03:08:55;;;;;;;16.98;9.45;;;;;;;23.65;78.49;100773.44;2091329;28;20071;-70
2022/08/31 03:10:19;;;;;;;17.15;8.77;;;;;;;23.65;78.57;100776.16;2091770;28;20496;-70
2022/08/31 03:11:44;;;;;;;20.00;9.80;;;;;;;23.62;78.34;100787.06;2091428;28;20061;-71
2022/08/31 03:13:07;;;;;;;14.82;8.98;;;;;;;23.62;78.57;100783.50;2090224;28;20093;-70
2022/08/31 03:14:28;;;;;;;17.00;8.68;;;;;;;23.60;78.51;100780.84;2093572;28;20791;-71
2022/08/31 03:15:51;;;;;;;17.48;8.57;;;;;;;23.59;78.77;100789.84;2089884;28;20044;-70
2022/08/31 03:17:12;;;;;;;19.13;9.43;;;;;;;23.57;78.87;100786.31;2091195;28;20048;-71
2022/08/31 03:18:35;;;;;;;18.10;8.43;;;;;;;23.56;78.69;100781.91;2090828;28;20106;-70
2022/08/31 03:20:00;;;;;;;18.83;9.20;;;;;;;23.55;78.88;100784.66;2090475;28;20048;-70
2022/08/31 03:21:22;;;;;;;13.77;8.40;;;;;;;23.53;78.87;100790.09;2100150;28;20055;-70
2022/08/31 03:22:44;;;;;;;15.30;8.63;;;;;;;23.50;78.77;100792.88;2093830;28;20056;-70
2022/08/31 03:24:08;;;;;;;20.48;9.25;;;;;;;23.49;78.68;100785.75;2101836;28;20064;-71
2022/08/31 03:25:29;;;;;;;18.02;8.98;;;;;;;23.49;78.43;100782.19;2102170;28;20044;-71
2022/08/31 03:26:54;;;;;;;18.63;8.98;;;;;;;23.50;78.69;100784.81;2093665;28;20044;-71
2022/08/31 03:28:16;;;;;;;19.17;8.63;;;;;;;23.50;78.62;100786.66;2085523;28;20081;-71
2022/08/31 03:29:53;;;;;;;14.82;8.60;;;;;;;23.47;78.65;100787.63;2092248;28;20048;-70
2022/08/31 03:31:20;;;;;;;14.88;8.23;;;;;;;23.47;79.02;100786.72;2094328;28;20079;-71
2022/08/31 03:32:44;;;;;;;15.57;8.55;;;;;;;23.48;79.01;100784.00;2091186;28;20045;-70
2022/08/31 03:34:05;;;;;;;17.42;9.57;;;;;;;23.47;79.15;100793.03;2085470;28;20167;-70
2022/08/31 03:35:29;;;;;;;16.23;9.35;;;;;;;23.45;79.27;100789.44;2083042;28;20533;-70
2022/08/31 03:36:51;;;;;;;19.42;9.50;;;;;;;23.44;79.04;100785.00;2082904;28;20044;-70
2022/08/31 03:38:14;;;;;;;19.23;9.27;;;;;;;23.41;79.17;100793.22;2083099;28;20540;-71
2022/08/31 03:39:38;;;;;;;16.38;9.40;;;;;;;23.40;79.25;100794.13;2083302;28;20056;-70
2022/08/31 03:41:02;;;;;;;20.77;10.07;;;;;;;23.38;79.24;100794.19;2091277;28;20063;-71
2022/08/31 03:42:29;;;;;;;16.08;9.18;;;;;;;23.40;79.44;100789.63;2085939;28;20049;-70
2022/08/31 03:43:52;;;;;;;17.75;8.57;;;;;;;23.43;79.44;100788.66;2083047;28;20090;-70
2022/08/31 03:45:14;;;;;;;17.27;9.25;;;;;;;23.44;79.12;100793.97;2091294;28;20476;-71
2022/08/31 03:46:43;;;;;;;18.10;8.68;;;;;;;23.45;79.27;100797.53;2085765;28;20099;-70
2022/08/31 03:48:06;;;;;;;16.55;8.57;;;;;;;23.45;79.11;100801.13;2091754;28;20491;-71
2022/08/31 03:49:28;;;;;;;16.40;8.60;;;;;;;23.43;79.04;100797.59;2095388;28;20076;-71
2022/08/31 03:51:04;;;;;;;18.65;8.25;;;;;;;23.43;79.05;100800.28;2093877;28;20052;-71
2022/08/31 03:52:30;;;;;;;21.27;8.05;;;;;;;23.43;78.89;100802.13;2092135;28;20084;-71
2022/08/31 03:53:57;;;;;;;13.93;8.45;;;;;;;23.44;78.84;100804.75;2092225;28;20045;-71
2022/08/31 03:55:19;;;;;;;15.50;8.35;;;;;;;23.47;78.71;100808.28;2091387;28;20056;-70
2022/08/31 03:56:43;;;;;;;12.82;7.68;;;;;;;23.47;78.33;100801.09;2090419;28;20044;-71
2022/08/31 03:58:07;;;;;;;13.23;8.30;;;;;;;23.50;78.25;100803.66;2099049;28;20435;-71
2022/08/31 03:59:30;;;;;;;15.85;8.68;;;;;;;23.51;78.47;100808.13;2095907;28;20078;-71
2022/08/31 04:01:12;;;;;;;19.58;10.68;;;;;;;23.52;78.23;100809.88;2097379;28;20068;-70
2022/08/31 04:03:10;;;;;;;14.32;7.95;;;;;;;23.50;78.39;100809.06;2079399;28;20591;-71
2022/08/31 04:04:52;;;;;;;18.38;8.32;;;;;;;23.52;78.37;100812.59;2080290;28;20107;-71
2022/08/31 04:06:33;;;;;;;18.90;8.02;;;;;;;23.51;78.64;100807.25;2096222;28;20144;-71
2022/08/31 04:08:20;;;;;;;16.10;8.77;;;;;;;23.53;78.61;100816.16;2063429;28;20507;-71
2022/08/31 04:09:45;;;;;;;15.07;8.95;;;;;;;23.51;78.58;100805.44;2094164;28;20056;-71
2022/08/31 04:11:09;;;;;;;;;;;;;;;23.47;78.82;100803.78;2094241;28;20047;-71
2022/08/31 04:12:51;;;;;;;15.88;7.82;;;;;;;23.48;78.97;100807.38;2096001;28;20348;-71
2022/08/31 04:14:41;;;;;;;13.77;8.10;;;;;;;23.51;79.12;100807.25;2082619;28;20535;-71
2022/08/31 04:16:25;;;;;;;16.05;8.40;;;;;;;23.55;79.03;100806.22;2096137;28;20147;-71
2022/08/31 04:18:26;;;;;;;20.80;8.40;;;;;;;23.58;79.38;100800.69;2099687;28;20090;-72
2022/08/31 04:19:49;;;;;;;19.33;8.30;;;;;;;23.61;79.43;100803.28;2087830;28;20150;-71
2022/08/31 04:21:30;;;;;;;13.52;8.18;;;;;;;23.66;79.38;100799.47;2088518;28;20044;-71
2022/08/31 04:22:52;;;;;;;19.10;8.02;;;;;;;23.70;79.35;100806.50;2083099;28;20049;-71
2022/08/31 04:24:25;;;;;;;16.30;7.78;;;;;;;23.72;79.20;100799.25;2085438;28;20104;-71
2022/08/31 04:25:47;;;;;;;15.20;8.25;;;;;;;23.79;79.34;100805.28;2091197;28;20478;-71
2022/08/31 04:27:10;;;;;;;18.58;8.18;;;;;;;23.89;79.54;100804.00;2093347;28;20113;-71
2022/08/31 04:28:31;;;;;;;18.33;8.52;;;;;;;24.01;79.77;100810.72;2101840;28;20484;-71
2022/08/31 04:29:55;;;;;;;13.73;7.25;;;;;;;24.13;80.03;100804.84;2087948;28;20568;-71
2022/08/31 04:31:18;;;;;;;12.98;6.60;;;;;;;24.26;79.79;100806.16;2094527;28;20072;-71
2022/08/31 04:32:41;;;;;;;13.90;7.68;;;;;;;24.39;79.53;100806.53;2087013;28;20126;-71
2022/08/31 04:34:02;;;;;;;12.15;6.85;;;;;;;24.52;79.18;100808.69;2092273;28;20052;-71
2022/08/31 04:35:25;;;;;;;;;;;;;;;24.60;78.70;100806.53;2089316;28;20044;-71
2022/08/31 04:36:48;;;;;;;12.82;6.03;;;;;;;24.71;78.74;100805.19;2092515;28;19924;-71
2022/08/31 04:38:11;;;;;;;15.02;6.95;;;;;;;24.83;78.49;100812.78;2093503;28;20077;-71
2022/08/31 04:39:34;;;;;;;15.20;6.80;;;;;;;24.93;78.08;100808.81;2100810;28;20107;-71
2022/08/31 04:40:55;;;;;;;13.20;6.07;;;;;;;25.04;77.47;100803.81;2097467;28;20037;-71
2022/08/31 04:42:18;;;;;;;11.18;6.03;;;;;;;25.14;77.16;100807.84;2095068;28;20044;-71
2022/08/31 04:43:45;;;;;;;15.57;6.45;;;;;;;25.27;76.78;100806.34;2092199;28;20131;-71
2022/08/31 04:45:10;;;;;;;13.63;5.85;;;;;;;25.41;76.85;100809.31;2092378;28;20442;-71
2022/08/31 04:46:33;;;;;;;11.75;6.07;;;;;;;25.54;76.68;100820.47;2100352;28;20105;-71
2022/08/31 04:47:56;;;;;;;13.32;6.57;;;;;;;25.68;76.70;100815.34;2103174;28;20101;-71
2022/08/31 04:49:18;;;;;;;14.88;5.93;;;;;;;25.82;76.72;100806.59;2086735;28;20504;-71
2022/08/31 04:50:41;;;;;;;13.05;5.63;;;;;;;25.96;76.31;100806.81;2090137;28;20045;-71
2022/08/31 04:52:05;;;;;;;12.15;5.43;;;;;;;26.11;76.41;100811.53;2092279;28;20103;-71
2022/08/31 04:53:26;;;;;;;10.82;5.22;;;;;;;26.25;76.05;100815.44;2100754;28;20630;-71
2022/08/31 04:54:49;;;;;;;8.57;5.10;;;;;;;26.37;75.84;100809.41;2092914;28;20131;-71
2022/08/31 04:56:13;;;;;;;13.25;5.25;;;;;;;26.50;75.50;100805.16;2086538;28;20615;-71
2022/08/31 04:57:39;;;;;;;11.73;5.18;;;;;;;26.63;75.20;100810.81;2079140;28;20041;-71
2022/08/31 04:59:04;;;;;;;10.25;5.18;;;;;;;26.73;74.58;100804.84;2085288;28;20169;-71
2022/08/31 05:00:31;;;;;;;9.73;4.72;;;;;;;26.86;74.20;100807.81;2097251;28;20496;-71
2022/08/31 05:02:20;;;;;;;10.07;4.63;;;;;;;27.00;74.06;100807.16;2088563;28;20048;-71
2022/08/31 05:03:51;;;;;;;10.57;5.03;;;;;;;27.19;73.86;100806.13;2085607;28;20091;-71
2022/08/31 05:05:14;;;;;;;10.73;4.70;;;;;;;27.39;72.77;100802.34;2087084;28;20049;-71
2022/08/31 05:06:39;;;;;;;11.40;4.82;;;;;;;27.55;72.40;100795.19;2083905;28;20056;-71
2022/08/31 05:08:04;;;;;;;12.00;4.78;;;;;;;27.68;72.16;100792.69;2084633;28;20056;-71
2022/08/31 05:09:27;;;;;;;10.23;4.78;;;;;;;27.79;71.92;100795.66;2092586;28;20523;-71
2022/08/31 05:10:49;;;;;;;11.43;4.88;;;;;;;27.92;71.58;100794.03;2086683;28;20109;-71
2022/08/31 05:12:12;;;;;;;8.65;3.97;;;;;;;28.06;70.99;100793.25;2094730;28;20056;-71
2022/08/31 05:13:33;;;;;;;10.07;4.60;;;;;;;28.21;70.86;100796.97;2094603;28;20041;-71
2022/08/31 05:14:56;;;;;;;10.02;3.60;;;;;;;28.35;70.50;100794.34;2086278;28;20049;-71
2022/08/31 05:16:21;;;;;;;9.75;4.53;;;;;;;28.53;70.15;100796.00;2092866;28;20081;-71
2022/08/31 05:17:44;;;;;;;9.88;5.25;;;;;;;28.70;69.84;100795.88;2086470;28;20108;-71
2022/08/31 05:19:07;;;;;;;10.68;3.92;;;;;;;28.87;69.32;100787.66;2093622;28;20055;-71
2022/08/31 05:20:29;;;;;;;9.23;3.80;;;;;;;29.03;68.66;100790.31;2086575;28;20045;-72
2022/08/31 05:21:52;;;;;;;9.63;3.90;;;;;;;29.19;67.93;100780.25;2098034;28;20570;-71
2022/08/31 05:23:16;;;;;;;11.02;3.72;;;;;;;29.36;67.28;100784.66;2094277;28;20071;-71
2022/08/31 05:24:38;;;;;;;12.23;4.43;;;;;;;29.55;66.52;100782.53;2098897;28;20040;-71
2022/08/31 05:26:01;;;;;;;9.30;4.13;;;;;;;29.68;66.05;100785.38;2092803;28;20048;-71
2022/08/31 05:27:23;;;;;;;9.18;4.07;;;;;;;29.82;65.13;100779.06;2086279;28;20103;-71
2022/08/31 05:28:47;;;;;;;7.00;3.78;;;;;;;29.97;64.14;100778.09;2084220;28;20074;-71
2022/08/31 05:30:10;;;;;;;10.02;3.97;;;;;;;30.12;63.55;100781.69;2083707;28;20045;-71
2022/08/31 05:31:46;;;;;;;8.85;3.97;;;;;;;30.30;63.34;100773.19;2094843;28;20048;-71
2022/08/31 05:33:09;;;;;;;10.75;4.35;;;;;;;30.45;63.07;100776.75;2088900;28;20052;-71
2022/08/31 05:34:32;;;;;;;9.02;4.20;;;;;;;30.59;62.62;100782.16;2078136;28;20049;-71
2022/08/31 05:35:55;;;;;;;12.90;3.78;;;;;;;30.78;62.25;100787.25;2081681;28;20080;-72
2022/08/31 05:37:18;;;;;;;9.50;3.53;;;;;;;30.92;61.83;100781.69;2088234;28;20049;-72
2022/08/31 05:38:42;;;;;;;12.98;4.30;;;;;;;31.10;61.25;100787.78;2084816;28;20055;-71
2022/08/31 05:40:09;;;;;;;14.50;4.10;;;;;;;31.22;60.42;100779.63;2092253;28;20044;-71
2022/08/31 05:41:32;;;;;;;11.90;4.00;;;;;;;31.36;59.93;100786.84;2092571;28;20060;-71
2022/08/31 05:42:58;;;;;;;11.82;3.85;;;;;;;31.48;59.07;100775.06;2091187;28;20398;-71
2022/08/31 05:44:21;;;;;;;10.25;3.90;;;;;;;31.58;58.50;100775.25;2096146;28;20051;-71
2022/08/31 05:45:43;;;;;;;9.30;4.00;;;;;;;31.67;57.97;100778.25;2089563;28;20253;-71
2022/08/31 05:47:08;;;;;;;11.80;3.80;;;;;;;31.80;57.27;100782.81;2090272;28;20488;-72
2022/08/31 05:48:32;;;;;;;8.35;4.47;;;;;;;31.92;56.88;100784.66;2087398;28;20132;-71
2022/08/31 05:49:56;;;;;;;9.23;3.80;;;;;;;32.04;56.48;100781.00;2088675;28;20065;-71
2022/08/31 05:51:20;;;;;;;7.10;3.38;;;;;;;32.18;56.13;100783.63;2091992;28;20052;-72
2022/08/31 05:52:41;;;;;;;9.57;3.17;;;;;;;32.25;55.48;100787.66;2098638;28;20056;-71
2022/08/31 05:54:04;;;;;;;7.18;3.20;;;;;;;32.30;55.22;100784.56;2088788;28;20140;-71
2022/08/31 05:55:28;;;;;;;10.38;4.53;;;;;;;32.38;54.96;100783.03;2094664;28;20033;-71
2022/08/31 05:56:52;;;;;;;8.23;3.20;;;;;;;32.49;54.70;100784.09;2088355;28;20672;-71
2022/08/31 05:58:14;;;;;;;8.13;3.42;;;;;;;32.58;54.08;100789.72;2087871;28;20135;-70
2022/08/31 05:59:39;;;;;;;10.98;3.00;;;;;;;32.66;53.63;100791.88;2085887;28;20469;-71
2022/08/31 06:01:01;;;;;;;7.80;3.03;;;;;;;32.71;53.10;100779.63;2092460;28;20052;-71
2022/08/31 06:02:54;;;;;;;13.65;5.18;;;;;;;32.70;52.98;100798.88;2094521;28;20129;-72
2022/08/31 06:04:18;;;;;;;5.97;3.55;;;;;;;32.80;52.65;100789.00;2095194;28;20064;-70
2022/08/31 06:05:39;;;;;;;12.63;3.92;;;;;;;32.94;52.11;100793.41;2086106;28;20048;-70
2022/08/31 06:07:02;;;;;;;8.45;3.47;;;;;;;33.02;51.77;100793.66;2090936;28;20075;-71
2022/08/31 06:08:32;;;;;;;8.75;3.28;;;;;;;33.13;51.44;100794.59;2088547;28;20037;-71
2022/08/31 06:09:55;;;;;;;7.78;3.20;;;;;;;33.19;50.90;100794.16;2083685;28;20041;-71
2022/08/31 06:11:19;;;;;;;7.28;3.22;;;;;;;33.27;50.83;100789.94;2095056;28;20049;-71
2022/08/31 06:12:43;;;;;;;9.50;2.97;;;;;;;33.38;50.69;100803.66;2096892;28;20050;-71
2022/08/31 06:14:06;;;;;;;11.75;3.08;;;;;;;33.45;50.07;100797.56;2091417;28;20094;-71
2022/08/31 06:15:28;;;;;;;7.22;3.35;;;;;;;33.52;49.42;100792.47;2092796;28;20041;-71
2022/08/31 06:16:54;;;;;;;8.30;3.10;;;;;;;33.59;49.36;100802.84;2086268;28;20042;-71
2022/08/31 06:18:19;;;;;;;7.82;2.88;;;;;;;33.67;48.86;100791.25;2100518;28;20143;-71
2022/08/31 06:19:42;;;;;;;12.95;4.35;;;;;;;33.72;48.45;100797.28;2088646;28;20059;-72
2022/08/31 06:21:08;;;;;;;10.82;3.50;;;;;;;33.78;48.48;100798.63;2083322;28;20059;-72
2022/08/31 06:22:31;;;;;;;9.02;2.83;;;;;;;33.81;48.53;100801.13;2084503;28;20143;-71
2022/08/31 06:23:56;;;;;;;9.38;3.55;;;;;;;33.86;48.34;100801.63;2090106;28;20761;-71
2022/08/31 06:25:22;;;;;;;9.32;2.88;;;;;;;33.79;47.81;100805.88;2094387;28;20072;-72
2022/08/31 06:26:51;;;;;;;7.97;3.42;;;;;;;33.76;47.94;100806.09;2089455;28;20037;-72
2022/08/31 06:28:17;;;;;;;11.20;3.42;;;;;;;33.78;48.03;100807.72;2086685;28;20045;-73
2022/08/31 06:29:40;;;;;;;7.90;2.85;;;;;;;33.86;47.63;100801.63;2084643;28;20110;-73
2022/08/31 06:31:10;;;;;;;9.43;3.08;;;;;;;33.99;47.64;100799.66;2092044;28;20377;-73
2022/08/31 06:32:33;;;;;;;8.15;3.08;;;;;;;34.10;47.27;100804.22;2097057;28;20041;-72
2022/08/31 06:33:59;;;;;;;8.82;3.13;;;;;;;34.15;47.11;100805.59;2087434;28;20057;-72
2022/08/31 06:35:44;;;;;;;8.05;3.03;;;;;;;34.13;47.23;100807.63;2067298;28;20537;-72
2022/08/31 06:37:30;;;;;;;11.70;3.30;;;;;;;34.06;47.08;100802.75;2096821;28;20054;-72